Nina's Dandy — WCZ5647 — position and weather

sailwx.info

Track history (hours):
 
Tides and Currents Weather Stations Pressure Air Temp Water Temp Dewpoint Dewpoint Depression Visibility Wind Speed Wind Dir Waves Ship Positions

Nina's Dandy

Owner: POTOMAC PARTY CRUISES INC, ALEXANDRIA, VA. More information available from US FCC via Universal Licensing System and Coast Guard Vessel Documentation Center.

Last reported at 2018-Jan-01 05:26 UTC. Time now 2018-Jan-20 16:47 UTC.
Position N 38°48' W 077°02'.
Warning: this ship's position is 19 days out of date.

Length 13 m; draft 2 m.

Type: Passenger vessel. MMSI: 367427650.

Date/timePositionNaut miles runAvg speedWind from/ knotsBaromVisibWave heightAir tempDewpointWater temp
2018-Jan-01 05:26N 38°48' W 077°02'0 0.5
2018-Jan-01 04:57N 38°48' W 077°02'2 2.2
2018-Jan-01 03:59N 38°50' W 077°02'2 4.5
2018-Jan-01 03:27N 38°52' W 077°02'1 3.1
2018-Jan-01 03:00N 38°53' W 077°03'3 5.2
2018-Jan-01 02:30N 38°51' W 077°01'2 4.9
2018-Jan-01 02:00N 38°49' W 077°02'1 1.2
2018-Jan-01 01:20N 38°48' W 077°02'0 0.0
2018-Jan-01 00:26N 38°48' W 077°02'0 0.0
2017-Dec-31 03:01N 38°48' W 077°02'0 0.1
2017-Dec-31 02:52N 38°48' W 077°02'2 5.0
2017-Dec-31 02:29N 38°50' W 077°02'2 4.7
2017-Dec-31 02:00N 38°52' W 077°02'2 3.0
2017-Dec-31 01:30N 38°53' W 077°03'1 0.9
2017-Dec-31 00:57N 38°53' W 077°03'3 5.9
2017-Dec-31 00:29N 38°50' W 077°01'2 4.9
2017-Dec-31 00:00N 38°48' W 077°02'0 0.0
2017-Dec-30 23:22N 38°48' W 077°02'0 0.5
2017-Dec-30 23:00N 38°48' W 077°02'0 0.0
2017-Dec-30 22:30N 38°48' W 077°02'0 0.0
2017-Dec-30 21:57N 38°48' W 077°02'0 0.0
2017-Dec-30 21:28N 38°48' W 077°02'0 0.0
2017-Dec-30 20:57N 38°48' W 077°02'0 0.0
2017-Dec-30 20:26N 38°48' W 077°02'0 0.2
2017-Dec-30 19:23N 38°48' W 077°02'2 6.0
2017-Dec-30 19:00N 38°50' W 077°01'3 5.0
2017-Dec-30 18:30N 38°53' W 077°03'1 1.4
2017-Dec-30 18:00N 38°53' W 077°03'3 6.8
2017-Dec-30 17:30N 38°50' W 077°02'2 4.0
2017-Dec-30 16:59N 38°48' W 077°02'0 0.0
2017-Dec-30 02:55N 38°48' W 077°02'2 3.9
2017-Dec-30 02:30N 38°50' W 077°02'3 5.3
2017-Dec-30 01:57N 38°53' W 077°03'1 1.5
2017-Dec-30 01:09N 38°54' W 077°03'1 4.7
2017-Dec-30 01:00N 38°53' W 077°03'3 5.7
2017-Dec-30 00:30N 38°50' W 077°02'2 4.2
2017-Dec-29 23:57N 38°48' W 077°02'0 0.0
2017-Dec-29 23:28N 38°48' W 077°02'0 0.0
2017-Dec-29 22:42N 38°48' W 077°02'0 0.0
2017-Dec-29 22:24N 38°48' W 077°02'0 0.0
2017-Dec-29 21:48N 38°48' W 077°02'0 0.0
2017-Dec-29 21:19N 38°48' W 077°02'0 0.0
2017-Dec-29 20:44N 38°48' W 077°02'0 0.0
2017-Dec-29 20:23N 38°48' W 077°02'0 0.0
2017-Dec-29 20:00N 38°48' W 077°02'0 0.0
2017-Dec-29 19:30N 38°48' W 077°02'2 4.1
2017-Dec-29 19:00N 38°50' W 077°02'3 5.0
2017-Dec-29 18:27N 38°53' W 077°03'1 1.0
2017-Dec-29 17:55N 38°53' W 077°03'3 7.4
2017-Dec-29 17:29N 38°50' W 077°01'2 4.5
2017-Dec-29 17:00N 38°48' W 077°02'0 0.0
2017-Dec-29 16:30N 38°48' W 077°02'0 0.1
2017-Dec-29 15:58N 38°48' W 077°02'0 0.3
2017-Dec-29 15:29N 38°48' W 077°02'0 0.0
2017-Dec-29 14:54N 38°48' W 077°02'0 0.0
2017-Dec-29 14:30N 38°48' W 077°02'0 0.3
2017-Dec-29 13:50N 38°48' W 077°02'0 0.0
2017-Dec-29 13:26N 38°48' W 077°02'0 0.0
2017-Dec-29 12:57N 38°48' W 077°02'0 0.0
2017-Dec-29 12:30N 38°48' W 077°02'0 0.0
2017-Dec-28 02:20N 38°48' W 077°02'2 5.8
2017-Dec-28 02:00N 38°50' W 077°02'4 3.1
2017-Dec-28 00:41N 38°54' W 077°04'1 5.9
2017-Dec-28 00:29N 38°53' W 077°03'3 6.0
2017-Dec-28 00:00N 38°50' W 077°02'2 3.2
2017-Dec-27 23:22N 38°48' W 077°02'0 0.0
2017-Dec-27 23:00N 38°48' W 077°02'0 0.3
2017-Dec-27 22:29N 38°48' W 077°02'0 0.0
2017-Dec-27 21:49N 38°48' W 077°02'0 0.0
2017-Dec-27 21:24N 38°48' W 077°02'0 0.0
2017-Dec-27 20:56N 38°48' W 077°02'0 0.0
2017-Dec-27 20:20N 38°48' W 077°02'  
2017-Dec-24 19:18N 38°48' W 077°02'2 7.0
2017-Dec-24 19:00N 38°50' W 077°02'3 5.3
2017-Dec-24 18:26N 38°53' W 077°03'1 1.0
2017-Dec-24 17:56N 38°53' W 077°03'3 7.2
2017-Dec-24 17:29N 38°51' W 077°01'3 4.9
2017-Dec-24 16:58N 38°48' W 077°02'0 0.0
2017-Dec-24 16:24N 38°48' W 077°02'0 0.0
2017-Dec-24 15:59N 38°48' W 077°02'0 0.0
2017-Dec-24 02:51N 38°48' W 077°02'2 5.0
2017-Dec-24 02:28N 38°50' W 077°02'2 5.1
2017-Dec-24 02:00N 38°52' W 077°02'2 3.0
2017-Dec-24 01:14N 38°54' W 077°04'1 4.5
2017-Dec-24 01:00N 38°53' W 077°03'3 5.9
2017-Dec-24 00:30N 38°51' W 077°01'3 5.3
2017-Dec-23 23:58N 38°48' W 077°02'0 0.0
2017-Dec-23 23:29N 38°48' W 077°02'0 0.0
2017-Dec-23 22:57N 38°48' W 077°02'0 0.4
2017-Dec-23 22:30N 38°48' W 077°02'0 0.0
2017-Dec-23 21:40N 38°48' W 077°02'0 0.0
2017-Dec-23 21:30N 38°48' W 077°02'0 0.0
2017-Dec-23 20:55N 38°48' W 077°02'0 0.0
2017-Dec-23 20:29N 38°48' W 077°02'0 0.3
2017-Dec-23 19:49N 38°48' W 077°02'0 0.0
2017-Dec-23 19:30N 38°48' W 077°02'2 3.4
2017-Dec-23 19:01N 38°50' W 077°02'3 5.2
2017-Dec-23 18:30N 38°52' W 077°02'1 1.7
2017-Dec-23 17:48N 38°53' W 077°03'2 7.4
2017-Dec-23 17:30N 38°51' W 077°02'3 6.2
2017-Dec-23 16:57N 38°48' W 077°02'0 0.0
2017-Dec-23 16:29N 38°48' W 077°02'0 0.0
2017-Dec-23 02:53N 38°48' W 077°02'2 5.9
2017-Dec-23 02:30N 38°50' W 077°02'2 4.8
2017-Dec-23 01:59N 38°53' W 077°03'2 2.5
2017-Dec-23 01:12N 38°54' W 077°04'1 5.5
2017-Dec-23 00:59N 38°53' W 077°03'3 7.0
2017-Dec-23 00:30N 38°50' W 077°02'  
Track history (hours):
 
Tides and Currents Weather Stations Pressure Air Temp Water Temp Dewpoint Dewpoint Depression Visibility Wind Speed Wind Dir Waves Ship Positions

Nina's Dandy

Owner: POTOMAC PARTY CRUISES INC, ALEXANDRIA, VA. More information available from US FCC via Universal Licensing System and Coast Guard Vessel Documentation Center.

Last reported at 2018-Jan-01 05:26 UTC. Time now 2018-Jan-20 16:47 UTC.
Position N 38°48' W 077°02'.
Warning: this ship's position is 19 days out of date.

Length 13 m; draft 2 m.

Type: Passenger vessel. MMSI: 367427650.

Date/timePositionNaut miles runAvg speedWind from/ knotsBaromVisibWave heightAir tempDewpointWater temp
2018-Jan-01 05:26N 38°48' W 077°02'0 0.5
2018-Jan-01 04:57N 38°48' W 077°02'2 2.2
2018-Jan-01 03:59N 38°50' W 077°02'2 4.5
2018-Jan-01 03:27N 38°52' W 077°02'1 3.1
2018-Jan-01 03:00N 38°53' W 077°03'3 5.2
2018-Jan-01 02:30N 38°51' W 077°01'2 4.9
2018-Jan-01 02:00N 38°49' W 077°02'1 1.2
2018-Jan-01 01:20N 38°48' W 077°02'0 0.0
2018-Jan-01 00:26N 38°48' W 077°02'0 0.0
2017-Dec-31 03:01N 38°48' W 077°02'0 0.1
2017-Dec-31 02:52N 38°48' W 077°02'2 5.0
2017-Dec-31 02:29N 38°50' W 077°02'2 4.7
2017-Dec-31 02:00N 38°52' W 077°02'2 3.0
2017-Dec-31 01:30N 38°53' W 077°03'1 0.9
2017-Dec-31 00:57N 38°53' W 077°03'3 5.9
2017-Dec-31 00:29N 38°50' W 077°01'2 4.9
2017-Dec-31 00:00N 38°48' W 077°02'0 0.0
2017-Dec-30 23:22N 38°48' W 077°02'0 0.5
2017-Dec-30 23:00N 38°48' W 077°02'0 0.0
2017-Dec-30 22:30N 38°48' W 077°02'0 0.0
2017-Dec-30 21:57N 38°48' W 077°02'0 0.0
2017-Dec-30 21:28N 38°48' W 077°02'0 0.0
2017-Dec-30 20:57N 38°48' W 077°02'0 0.0
2017-Dec-30 20:26N 38°48' W 077°02'0 0.2
2017-Dec-30 19:23N 38°48' W 077°02'2 6.0
2017-Dec-30 19:00N 38°50' W 077°01'3 5.0
2017-Dec-30 18:30N 38°53' W 077°03'1 1.4
2017-Dec-30 18:00N 38°53' W 077°03'3 6.8
2017-Dec-30 17:30N 38°50' W 077°02'2 4.0
2017-Dec-30 16:59N 38°48' W 077°02'0 0.0
2017-Dec-30 02:55N 38°48' W 077°02'2 3.9
2017-Dec-30 02:30N 38°50' W 077°02'3 5.3
2017-Dec-30 01:57N 38°53' W 077°03'1 1.5
2017-Dec-30 01:09N 38°54' W 077°03'1 4.7
2017-Dec-30 01:00N 38°53' W 077°03'3 5.7
2017-Dec-30 00:30N 38°50' W 077°02'2 4.2
2017-Dec-29 23:57N 38°48' W 077°02'0 0.0
2017-Dec-29 23:28N 38°48' W 077°02'0 0.0
2017-Dec-29 22:42N 38°48' W 077°02'0 0.0
2017-Dec-29 22:24N 38°48' W 077°02'0 0.0
2017-Dec-29 21:48N 38°48' W 077°02'0 0.0
2017-Dec-29 21:19N 38°48' W 077°02'0 0.0
2017-Dec-29 20:44N 38°48' W 077°02'0 0.0
2017-Dec-29 20:23N 38°48' W 077°02'0 0.0
2017-Dec-29 20:00N 38°48' W 077°02'0 0.0
2017-Dec-29 19:30N 38°48' W 077°02'2 4.1
2017-Dec-29 19:00N 38°50' W 077°02'3 5.0
2017-Dec-29 18:27N 38°53' W 077°03'1 1.0
2017-Dec-29 17:55N 38°53' W 077°03'3 7.4
2017-Dec-29 17:29N 38°50' W 077°01'2 4.5
2017-Dec-29 17:00N 38°48' W 077°02'0 0.0
2017-Dec-29 16:30N 38°48' W 077°02'0 0.1
2017-Dec-29 15:58N 38°48' W 077°02'0 0.3
2017-Dec-29 15:29N 38°48' W 077°02'0 0.0
2017-Dec-29 14:54N 38°48' W 077°02'0 0.0
2017-Dec-29 14:30N 38°48' W 077°02'0 0.3
2017-Dec-29 13:50N 38°48' W 077°02'0 0.0
2017-Dec-29 13:26N 38°48' W 077°02'0 0.0
2017-Dec-29 12:57N 38°48' W 077°02'0 0.0
2017-Dec-29 12:30N 38°48' W 077°02'0 0.0
2017-Dec-28 02:20N 38°48' W 077°02'2 5.8
2017-Dec-28 02:00N 38°50' W 077°02'4 3.1
2017-Dec-28 00:41N 38°54' W 077°04'1 5.9
2017-Dec-28 00:29N 38°53' W 077°03'3 6.0
2017-Dec-28 00:00N 38°50' W 077°02'2 3.2
2017-Dec-27 23:22N 38°48' W 077°02'0 0.0
2017-Dec-27 23:00N 38°48' W 077°02'0 0.3
2017-Dec-27 22:29N 38°48' W 077°02'0 0.0
2017-Dec-27 21:49N 38°48' W 077°02'0 0.0
2017-Dec-27 21:24N 38°48' W 077°02'0 0.0
2017-Dec-27 20:56N 38°48' W 077°02'0 0.0
2017-Dec-27 20:20N 38°48' W 077°02'  
2017-Dec-24 19:18N 38°48' W 077°02'2 7.0
2017-Dec-24 19:00N 38°50' W 077°02'3 5.3
2017-Dec-24 18:26N 38°53' W 077°03'1 1.0
2017-Dec-24 17:56N 38°53' W 077°03'3 7.2
2017-Dec-24 17:29N 38°51' W 077°01'3 4.9
2017-Dec-24 16:58N 38°48' W 077°02'0 0.0
2017-Dec-24 16:24N 38°48' W 077°02'0 0.0
2017-Dec-24 15:59N 38°48' W 077°02'0 0.0
2017-Dec-24 02:51N 38°48' W 077°02'2 5.0
2017-Dec-24 02:28N 38°50' W 077°02'2 5.1
2017-Dec-24 02:00N 38°52' W 077°02'2 3.0
2017-Dec-24 01:14N 38°54' W 077°04'1 4.5
2017-Dec-24 01:00N 38°53' W 077°03'3 5.9
2017-Dec-24 00:30N 38°51' W 077°01'3 5.3
2017-Dec-23 23:58N 38°48' W 077°02'0 0.0
2017-Dec-23 23:29N 38°48' W 077°02'0 0.0
2017-Dec-23 22:57N 38°48' W 077°02'0 0.4
2017-Dec-23 22:30N 38°48' W 077°02'0 0.0
2017-Dec-23 21:40N 38°48' W 077°02'0 0.0
2017-Dec-23 21:30N 38°48' W 077°02'0 0.0
2017-Dec-23 20:55N 38°48' W 077°02'0 0.0
2017-Dec-23 20:29N 38°48' W 077°02'0 0.3
2017-Dec-23 19:49N 38°48' W 077°02'0 0.0
2017-Dec-23 19:30N 38°48' W 077°02'2 3.4
2017-Dec-23 19:01N 38°50' W 077°02'3 5.2
2017-Dec-23 18:30N 38°52' W 077°02'1 1.7
2017-Dec-23 17:48N 38°53' W 077°03'2 7.4
2017-Dec-23 17:30N 38°51' W 077°02'3 6.2
2017-Dec-23 16:57N 38°48' W 077°02'0 0.0
2017-Dec-23 16:29N 38°48' W 077°02'0 0.0
2017-Dec-23 02:53N 38°48' W 077°02'2 5.9
2017-Dec-23 02:30N 38°50' W 077°02'2 4.8
2017-Dec-23 01:59N 38°53' W 077°03'2 2.5
2017-Dec-23 01:12N 38°54' W 077°04'1 5.5
2017-Dec-23 00:59N 38°53' W 077°03'3 7.0
2017-Dec-23 00:30N 38°50' W 077°02'  

Dump ship's entire track history